sensor_id;sensor_type;location;lat;lon;timestamp;pressure;altitude;pressure_sealevel;temperature;humidity
7660;BME280;3872;47.902;8.162;2023-07-13T00:00:56;92100.16;;;17.22;100.00
7660;BME280;3872;47.902;8.162;2023-07-13T00:03:23;92101.03;;;17.14;100.00
7660;BME280;3872;47.902;8.162;2023-07-13T00:05:57;92107.19;;;17.06;100.00
7660;BME280;3872;47.902;8.162;2023-07-13T00:08:24;92104.72;;;17.21;100.00
7660;BME280;3872;47.902;8.162;2023-07-13T00:10:51;92103.13;;;17.08;100.00
7660;BME280;3872;47.902;8.162;2023-07-13T00:13:19;92106.41;;;17.05;100.00
7660;BME280;3872;47.902;8.162;2023-07-13T00:15:46;92103.81;;;17.17;100.00
7660;BME280;3872;47.902;8.162;2023-07-13T00:18:14;92103.16;;;17.20;100.00
7660;BME280;3872;47.902;8.162;2023-07-13T00:20:40;92103.03;;;17.17;100.00
7660;BME280;3872;47.902;8.162;2023-07-13T00:23:08;92103.50;;;17.19;100.00
7660;BME280;3872;47.902;8.162;2023-07-13T00:25:35;92107.72;;;16.99;100.00
7660;BME280;3872;47.902;8.162;2023-07-13T00:28:01;92092.63;;;16.91;100.00
7660;BME280;3872;47.902;8.162;2023-07-13T00:30:30;92094.34;;;16.75;100.00
7660;BME280;3872;47.902;8.162;2023-07-13T00:32:57;92080.75;;;17.09;100.00
7660;BME280;3872;47.902;8.162;2023-07-13T00:35:26;92079.09;;;17.05;100.00
7660;BME280;3872;47.902;8.162;2023-07-13T00:37:52;92080.53;;;17.14;100.00
7660;BME280;3872;47.902;8.162;2023-07-13T00:40:19;92085.22;;;17.17;100.00
7660;BME280;3872;47.902;8.162;2023-07-13T00:42:45;92088.28;;;17.19;100.00
7660;BME280;3872;47.902;8.162;2023-07-13T00:48:20;92092.16;;;17.10;100.00
7660;BME280;3872;47.902;8.162;2023-07-13T00:50:51;92096.50;;;17.14;100.00
7660;BME280;3872;47.902;8.162;2023-07-13T00:53:18;92090.72;;;17.12;100.00
7660;BME280;3872;47.902;8.162;2023-07-13T00:55:46;92095.84;;;17.17;100.00
7660;BME280;3872;47.902;8.162;2023-07-13T00:58:15;92099.75;;;16.99;100.00
7660;BME280;3872;47.902;8.162;2023-07-13T01:00:42;92095.47;;;17.07;100.00
7660;BME280;3872;47.902;8.162;2023-07-13T01:03:09;92086.94;;;17.13;100.00
7660;BME280;3872;47.902;8.162;2023-07-13T01:05:35;92087.31;;;17.12;100.00
7660;BME280;3872;47.902;8.162;2023-07-13T01:08:04;92083.25;;;16.94;100.00
7660;BME280;3872;47.902;8.162;2023-07-13T01:10:33;92086.75;;;16.86;100.00
7660;BME280;3872;47.902;8.162;2023-07-13T01:16:51;92082.91;;;16.95;100.00
7660;BME280;3872;47.902;8.162;2023-07-13T01:19:27;92076.25;;;16.89;100.00
7660;BME280;3872;47.902;8.162;2023-07-13T01:22:03;92074.97;;;16.74;100.00
7660;BME280;3872;47.902;8.162;2023-07-13T01:24:34;92087.47;;;16.53;100.00
7660;BME280;3872;47.902;8.162;2023-07-13T01:27:01;92074.88;;;16.41;100.00
7660;BME280;3872;47.902;8.162;2023-07-13T01:29:28;92079.03;;;16.30;100.00
7660;BME280;3872;47.902;8.162;2023-07-13T01:31:55;92080.19;;;16.21;100.00
7660;BME280;3872;47.902;8.162;2023-07-13T01:34:25;92084.50;;;16.34;100.00
7660;BME280;3872;47.902;8.162;2023-07-13T01:36:51;92076.63;;;16.17;100.00
7660;BME280;3872;47.902;8.162;2023-07-13T01:39:20;92079.91;;;16.14;100.00
7660;BME280;3872;47.902;8.162;2023-07-13T01:41:47;92072.84;;;15.97;100.00
7660;BME280;3872;47.902;8.162;2023-07-13T01:44:13;92072.91;;;15.88;100.00
7660;BME280;3872;47.902;8.162;2023-07-13T01:46:40;92068.63;;;15.96;100.00
7660;BME280;3872;47.902;8.162;2023-07-13T01:49:06;92066.00;;;15.96;100.00
7660;BME280;3872;47.902;8.162;2023-07-13T01:51:33;92066.00;;;15.96;100.00
7660;BME280;3872;47.902;8.162;2023-07-13T01:54:00;92073.25;;;16.08;100.00
7660;BME280;3872;47.902;8.162;2023-07-13T01:56:27;92074.47;;;15.89;100.00
7660;BME280;3872;47.902;8.162;2023-07-13T01:58:54;92077.19;;;15.72;100.00
7660;BME280;3872;47.902;8.162;2023-07-13T02:01:21;92073.63;;;15.68;100.00
7660;BME280;3872;47.902;8.162;2023-07-13T02:03:47;92077.50;;;15.71;100.00
7660;BME280;3872;47.902;8.162;2023-07-13T02:06:14;92081.28;;;15.70;100.00
7660;BME280;3872;47.902;8.162;2023-07-13T02:08:41;92077.88;;;15.52;100.00
7660;BME280;3872;47.902;8.162;2023-07-13T02:11:08;92079.13;;;15.63;100.00
7660;BME280;3872;47.902;8.162;2023-07-13T02:13:36;92083.97;;;15.61;100.00
7660;BME280;3872;47.902;8.162;2023-07-13T02:16:02;92076.00;;;15.61;100.00
7660;BME280;3872;47.902;8.162;2023-07-13T02:18:29;92078.50;;;15.57;100.00
7660;BME280;3872;47.902;8.162;2023-07-13T02:20:56;92072.56;;;15.60;100.00
7660;BME280;3872;47.902;8.162;2023-07-13T02:23:22;92066.31;;;15.56;100.00
7660;BME280;3872;47.902;8.162;2023-07-13T02:25:49;92058.38;;;15.56;100.00
7660;BME280;3872;47.902;8.162;2023-07-13T02:28:15;92062.31;;;15.42;100.00
7660;BME280;3872;47.902;8.162;2023-07-13T02:30:43;92064.84;;;15.29;100.00
7660;BME280;3872;47.902;8.162;2023-07-13T02:33:10;92064.59;;;15.14;100.00
7660;BME280;3872;47.902;8.162;2023-07-13T02:35:37;92069.16;;;15.05;100.00
7660;BME280;3872;47.902;8.162;2023-07-13T02:38:03;92058.66;;;15.17;100.00
7660;BME280;3872;47.902;8.162;2023-07-13T02:40:30;92053.47;;;15.20;100.00
7660;BME280;3872;47.902;8.162;2023-07-13T02:42:58;92058.38;;;15.01;100.00
7660;BME280;3872;47.902;8.162;2023-07-13T02:45:25;92062.47;;;14.81;100.00
7660;BME280;3872;47.902;8.162;2023-07-13T02:47:52;92062.97;;;14.75;100.00
7660;BME280;3872;47.902;8.162;2023-07-13T02:50:19;92056.28;;;14.69;100.00
7660;BME280;3872;47.902;8.162;2023-07-13T02:52:46;92056.22;;;14.86;100.00
7660;BME280;3872;47.902;8.162;2023-07-13T02:55:12;92056.88;;;14.92;100.00
7660;BME280;3872;47.902;8.162;2023-07-13T02:57:41;92062.47;;;14.90;100.00
7660;BME280;3872;47.902;8.162;2023-07-13T03:00:08;92057.00;;;14.86;100.00
7660;BME280;3872;47.902;8.162;2023-07-13T03:02:35;92050.63;;;14.79;100.00
7660;BME280;3872;47.902;8.162;2023-07-13T03:05:04;92052.06;;;14.76;100.00
7660;BME280;3872;47.902;8.162;2023-07-13T03:07:31;92056.28;;;14.60;100.00
7660;BME280;3872;47.902;8.162;2023-07-13T03:09:58;92061.88;;;14.59;100.00
7660;BME280;3872;47.902;8.162;2023-07-13T03:12:33;92060.00;;;14.68;100.00
7660;BME280;3872;47.902;8.162;2023-07-13T03:15:01;92056.72;;;14.71;100.00
7660;BME280;3872;47.902;8.162;2023-07-13T03:17:28;92064.84;;;14.57;100.00
7660;BME280;3872;47.902;8.162;2023-07-13T03:19:55;92073.13;;;14.47;100.00
7660;BME280;3872;47.902;8.162;2023-07-13T03:22:24;92076.38;;;14.61;100.00
7660;BME280;3872;47.902;8.162;2023-07-13T03:24:51;92067.19;;;14.59;100.00
7660;BME280;3872;47.902;8.162;2023-07-13T03:27:18;92065.63;;;14.58;100.00
7660;BME280;3872;47.902;8.162;2023-07-13T03:29:47;92075.13;;;14.59;100.00
7660;BME280;3872;47.902;8.162;2023-07-13T03:32:15;92081.66;;;14.53;100.00
7660;BME280;3872;47.902;8.162;2023-07-13T03:34:41;92085.25;;;14.39;100.00
7660;BME280;3872;47.902;8.162;2023-07-13T03:37:08;92080.41;;;14.33;100.00
7660;BME280;3872;47.902;8.162;2023-07-13T03:39:37;92075.59;;;14.43;100.00
7660;BME280;3872;47.902;8.162;2023-07-13T03:42:05;92081.19;;;14.50;100.00
7660;BME280;3872;47.902;8.162;2023-07-13T03:44:32;92076.38;;;14.53;100.00
7660;BME280;3872;47.902;8.162;2023-07-13T03:46:59;92083.09;;;14.41;100.00
7660;BME280;3872;47.902;8.162;2023-07-13T03:49:25;92088.53;;;14.45;100.00
7660;BME280;3872;47.902;8.162;2023-07-13T03:51:52;92088.53;;;14.54;100.00
7660;BME280;3872;47.902;8.162;2023-07-13T03:54:19;92087.59;;;14.41;100.00
7660;BME280;3872;47.902;8.162;2023-07-13T03:56:47;92082.75;;;14.52;100.00
7660;BME280;3872;47.902;8.162;2023-07-13T03:59:15;92082.31;;;14.41;100.00
7660;BME280;3872;47.902;8.162;2023-07-13T04:01:43;92078.97;;;14.35;100.00
7660;BME280;3872;47.902;8.162;2023-07-13T04:04:11;92084.13;;;14.23;100.00
7660;BME280;3872;47.902;8.162;2023-07-13T04:06:37;92089.59;;;14.27;100.00
7660;BME280;3872;47.902;8.162;2023-07-13T04:09:04;92085.88;;;14.45;100.00
7660;BME280;3872;47.902;8.162;2023-07-13T04:11:32;92093.19;;;14.39;100.00
7660;BME280;3872;47.902;8.162;2023-07-13T04:14:02;92092.56;;;14.51;100.00
7660;BME280;3872;47.902;8.162;2023-07-13T04:16:29;92089.78;;;14.39;100.00
7660;BME280;3872;47.902;8.162;2023-07-13T04:18:57;92080.69;;;14.23;100.00
7660;BME280;3872;47.902;8.162;2023-07-13T04:21:25;92090.03;;;14.29;100.00
7660;BME280;3872;47.902;8.162;2023-07-13T04:23:52;92095.13;;;13.91;100.00
7660;BME280;3872;47.902;8.162;2023-07-13T04:26:19;92100.44;;;13.99;100.00
7660;BME280;3872;47.902;8.162;2023-07-13T04:28:46;92100.56;;;13.94;100.00
7660;BME280;3872;47.902;8.162;2023-07-13T04:31:14;92104.19;;;14.16;100.00
7660;BME280;3872;47.902;8.162;2023-07-13T04:33:41;92104.81;;;14.13;100.00
7660;BME280;3872;47.902;8.162;2023-07-13T04:36:09;92118.84;;;14.13;100.00
7660;BME280;3872;47.902;8.162;2023-07-13T04:38:35;92120.38;;;14.14;100.00
7660;BME280;3872;47.902;8.162;2023-07-13T04:41:04;92117.34;;;14.46;100.00
7660;BME280;3872;47.902;8.162;2023-07-13T04:43:32;92116.25;;;14.47;100.00
7660;BME280;3872;47.902;8.162;2023-07-13T04:46:03;92118.25;;;14.33;100.00
7660;BME280;3872;47.902;8.162;2023-07-13T04:48:32;92120.59;;;14.35;100.00
7660;BME280;3872;47.902;8.162;2023-07-13T04:50:59;92123.91;;;14.49;100.00
7660;BME280;3872;47.902;8.162;2023-07-13T04:53:26;92126.84;;;14.47;100.00
7660;BME280;3872;47.902;8.162;2023-07-13T04:55:53;92124.81;;;14.53;100.00
7660;BME280;3872;47.902;8.162;2023-07-13T04:58:19;92131.50;;;14.59;100.00
7660;BME280;3872;47.902;8.162;2023-07-13T05:00:46;92121.22;;;14.66;100.00
7660;BME280;3872;47.902;8.162;2023-07-13T05:03:13;92129.03;;;14.63;100.00
7660;BME280;3872;47.902;8.162;2023-07-13T05:05:41;92122.47;;;14.86;100.00
7660;BME280;3872;47.902;8.162;2023-07-13T05:08:07;92136.34;;;14.83;100.00
7660;BME280;3872;47.902;8.162;2023-07-13T05:10:34;92134.31;;;14.97;100.00
7660;BME280;3872;47.902;8.162;2023-07-13T05:13:01;92138.78;;;15.14;100.00
7660;BME280;3872;47.902;8.162;2023-07-13T05:15:28;92145.34;;;15.34;100.00
7660;BME280;3872;47.902;8.162;2023-07-13T05:17:54;92146.53;;;15.45;100.00
7660;BME280;3872;47.902;8.162;2023-07-13T05:20:21;92148.28;;;15.41;100.00
7660;BME280;3872;47.902;8.162;2023-07-13T05:22:49;92149.84;;;15.33;100.00
7660;BME280;3872;47.902;8.162;2023-07-13T05:25:16;92157.94;;;15.54;100.00
7660;BME280;3872;47.902;8.162;2023-07-13T05:27:42;92164.63;;;15.60;100.00
7660;BME280;3872;47.902;8.162;2023-07-13T05:30:11;92154.19;;;15.46;100.00
7660;BME280;3872;47.902;8.162;2023-07-13T05:32:38;92153.88;;;15.48;100.00
7660;BME280;3872;47.902;8.162;2023-07-13T05:35:06;92163.22;;;15.62;100.00
7660;BME280;3872;47.902;8.162;2023-07-13T05:37:32;92168.97;;;15.64;100.00
7660;BME280;3872;47.902;8.162;2023-07-13T05:40:00;92170.13;;;15.55;100.00
7660;BME280;3872;47.902;8.162;2023-07-13T05:42:27;92169.34;;;15.54;100.00
7660;BME280;3872;47.902;8.162;2023-07-13T05:44:53;92175.28;;;15.25;100.00
7660;BME280;3872;47.902;8.162;2023-07-13T05:47:20;92161.84;;;15.48;100.00
7660;BME280;3872;47.902;8.162;2023-07-13T05:49:47;92164.38;;;15.91;100.00
7660;BME280;3872;47.902;8.162;2023-07-13T05:52:13;92165.28;;;15.95;100.00
7660;BME280;3872;47.902;8.162;2023-07-13T05:54:40;92170.25;;;16.05;100.00
7660;BME280;3872;47.902;8.162;2023-07-13T05:57:08;92174.16;;;16.28;100.00
7660;BME280;3872;47.902;8.162;2023-07-13T05:59:36;92172.56;;;16.36;100.00
7660;BME280;3872;47.902;8.162;2023-07-13T06:02:02;92184.97;;;16.53;100.00
7660;BME280;3872;47.902;8.162;2023-07-13T06:04:29;92181.91;;;16.71;100.00
7660;BME280;3872;47.902;8.162;2023-07-13T06:06:56;92172.31;;;16.50;100.00
7660;BME280;3872;47.902;8.162;2023-07-13T06:09:22;92177.59;;;16.58;100.00
7660;BME280;3872;47.902;8.162;2023-07-13T06:11:49;92172.75;;;16.31;100.00
7660;BME280;3872;47.902;8.162;2023-07-13T06:14:16;92178.50;;;16.12;100.00
7660;BME280;3872;47.902;8.162;2023-07-13T06:16:43;92183.06;;;16.03;100.00
7660;BME280;3872;47.902;8.162;2023-07-13T06:19:10;92182.84;;;16.46;100.00
7660;BME280;3872;47.902;8.162;2023-07-13T06:21:37;92179.75;;;16.35;100.00
7660;BME280;3872;47.902;8.162;2023-07-13T06:24:04;92177.00;;;16.53;100.00
7660;BME280;3872;47.902;8.162;2023-07-13T06:26:30;92174.38;;;16.23;100.00
7660;BME280;3872;47.902;8.162;2023-07-13T06:28:57;92184.16;;;16.31;100.00
7660;BME280;3872;47.902;8.162;2023-07-13T06:31:25;92185.88;;;16.86;100.00
7660;BME280;3872;47.902;8.162;2023-07-13T06:33:51;92198.91;;;17.00;100.00
7660;BME280;3872;47.902;8.162;2023-07-13T06:36:18;92198.88;;;17.20;100.00
7660;BME280;3872;47.902;8.162;2023-07-13T06:38:44;92194.81;;;17.56;100.00
7660;BME280;3872;47.902;8.162;2023-07-13T06:41:11;92190.53;;;17.96;100.00
7660;BME280;3872;47.902;8.162;2023-07-13T06:43:38;92191.63;;;18.20;100.00
7660;BME280;3872;47.902;8.162;2023-07-13T06:46:04;92190.09;;;18.19;100.00
7660;BME280;3872;47.902;8.162;2023-07-13T06:48:32;92198.50;;;18.09;100.00
7660;BME280;3872;47.902;8.162;2023-07-13T06:50:59;92208.63;;;18.15;100.00
7660;BME280;3872;47.902;8.162;2023-07-13T06:53:25;92200.94;;;18.14;100.00
7660;BME280;3872;47.902;8.162;2023-07-13T06:55:52;92194.19;;;18.04;100.00
7660;BME280;3872;47.902;8.162;2023-07-13T06:58:18;92181.13;;;18.60;100.00
7660;BME280;3872;47.902;8.162;2023-07-13T07:00:45;92188.44;;;18.63;100.00
7660;BME280;3872;47.902;8.162;2023-07-13T07:03:12;92186.09;;;18.73;99.22
7660;BME280;3872;47.902;8.162;2023-07-13T07:05:40;92191.22;;;18.66;93.02
7660;BME280;3872;47.902;8.162;2023-07-13T07:08:07;92180.72;;;18.98;88.45
7660;BME280;3872;47.902;8.162;2023-07-13T07:10:34;92190.25;;;18.99;82.31
7660;BME280;3872;47.902;8.162;2023-07-13T07:13:01;92187.22;;;19.12;81.58
7660;BME280;3872;47.902;8.162;2023-07-13T07:15:28;92190.03;;;19.44;82.17
7660;BME280;3872;47.902;8.162;2023-07-13T07:17:55;92184.97;;;19.54;73.47
7660;BME280;3872;47.902;8.162;2023-07-13T07:20:21;92193.59;;;19.36;75.83
7660;BME280;3872;47.902;8.162;2023-07-13T07:22:49;92194.44;;;19.24;73.03
7660;BME280;3872;47.902;8.162;2023-07-13T07:25:16;92200.38;;;19.33;74.44
7660;BME280;3872;47.902;8.162;2023-07-13T07:27:43;92205.13;;;19.40;68.80
7660;BME280;3872;47.902;8.162;2023-07-13T07:30:11;92202.56;;;19.55;68.11
7660;BME280;3872;47.902;8.162;2023-07-13T07:32:37;92201.25;;;19.93;67.36
7660;BME280;3872;47.902;8.162;2023-07-13T07:35:05;92196.78;;;20.13;60.23
7660;BME280;3872;47.902;8.162;2023-07-13T07:37:31;92200.59;;;20.27;65.48
7660;BME280;3872;47.902;8.162;2023-07-13T07:39:59;92191.97;;;20.03;65.81
7660;BME280;3872;47.902;8.162;2023-07-13T07:42:26;92178.38;;;20.39;64.04
7660;BME280;3872;47.902;8.162;2023-07-13T07:44:53;92189.50;;;20.41;66.79
7660;BME280;3872;47.902;8.162;2023-07-13T07:47:19;92190.50;;;20.05;70.37
7660;BME280;3872;47.902;8.162;2023-07-13T07:49:46;92187.91;;;19.93;70.19
7660;BME280;3872;47.902;8.162;2023-07-13T07:52:13;92191.53;;;19.57;72.55
7660;BME280;3872;47.902;8.162;2023-07-13T07:54:39;92200.19;;;19.66;71.16
7660;BME280;3872;47.902;8.162;2023-07-13T07:57:07;92199.47;;;20.13;71.38
7660;BME280;3872;47.902;8.162;2023-07-13T07:59:36;92193.59;;;19.91;72.92
7660;BME280;3872;47.902;8.162;2023-07-13T08:02:03;92204.19;;;19.88;74.97
7660;BME280;3872;47.902;8.162;2023-07-13T08:04:29;92212.34;;;19.79;75.16
7660;BME280;3872;47.902;8.162;2023-07-13T08:06:56;92210.59;;;19.43;76.88
7660;BME280;3872;47.902;8.162;2023-07-13T08:09:22;92215.38;;;19.50;74.32
7660;BME280;3872;47.902;8.162;2023-07-13T08:11:49;92223.72;;;19.48;71.69
7660;BME280;3872;47.902;8.162;2023-07-13T08:14:18;92208.88;;;19.63;72.54
7660;BME280;3872;47.902;8.162;2023-07-13T08:16:45;92205.25;;;20.30;67.61
7660;BME280;3872;47.902;8.162;2023-07-13T08:19:12;92202.91;;;20.60;62.17
7660;BME280;3872;47.902;8.162;2023-07-13T08:21:38;92202.19;;;20.95;62.72
7660;BME280;3872;47.902;8.162;2023-07-13T08:24:05;92199.94;;;21.70;59.01
7660;BME280;3872;47.902;8.162;2023-07-13T08:26:32;92210.50;;;20.27;67.92
7660;BME280;3872;47.902;8.162;2023-07-13T08:28:58;92198.66;;;19.97;63.28
7660;BME280;3872;47.902;8.162;2023-07-13T08:31:26;92198.81;;;20.47;69.82
7660;BME280;3872;47.902;8.162;2023-07-13T08:33:53;92201.38;;;21.45;59.29
7660;BME280;3872;47.902;8.162;2023-07-13T08:36:19;92204.09;;;21.68;57.17
7660;BME280;3872;47.902;8.162;2023-07-13T08:38:46;92206.53;;;20.68;63.25
7660;BME280;3872;47.902;8.162;2023-07-13T08:41:14;92212.28;;;19.91;64.70
7660;BME280;3872;47.902;8.162;2023-07-13T08:43:42;92215.00;;;20.23;62.14
7660;BME280;3872;47.902;8.162;2023-07-13T08:46:13;92212.97;;;20.98;64.56
7660;BME280;3872;47.902;8.162;2023-07-13T08:48:46;92219.22;;;19.65;66.18
7660;BME280;3872;47.902;8.162;2023-07-13T08:51:24;92224.25;;;19.98;64.17
7660;BME280;3872;47.902;8.162;2023-07-13T08:53:56;92203.34;;;20.78;58.62
7660;BME280;3872;47.902;8.162;2023-07-13T08:56:28;92208.41;;;20.05;66.57
7660;BME280;3872;47.902;8.162;2023-07-13T08:58:56;92219.88;;;19.62;64.57
7660;BME280;3872;47.902;8.162;2023-07-13T09:01:28;92204.97;;;20.83;61.18
7660;BME280;3872;47.902;8.162;2023-07-13T09:04:03;92212.81;;;19.97;64.01
7660;BME280;3872;47.902;8.162;2023-07-13T09:06:34;92212.97;;;20.04;64.66
7660;BME280;3872;47.902;8.162;2023-07-13T09:09:13;92213.38;;;20.34;65.99
7660;BME280;3872;47.902;8.162;2023-07-13T09:11:49;92221.03;;;20.20;62.24
7660;BME280;3872;47.902;8.162;2023-07-13T09:14:40;92216.53;;;20.87;59.23
7660;BME280;3872;47.902;8.162;2023-07-13T09:17:12;92212.31;;;20.70;62.22
7660;BME280;3872;47.902;8.162;2023-07-13T09:19:43;92234.06;;;19.38;66.27
7660;BME280;3872;47.902;8.162;2023-07-13T09:22:16;92229.25;;;20.43;65.23
7660;BME280;3872;47.902;8.162;2023-07-13T09:24:52;92231.06;;;20.39;64.02
7660;BME280;3872;47.902;8.162;2023-07-13T09:27:22;92226.66;;;19.87;67.69
7660;BME280;3872;47.902;8.162;2023-07-13T09:29:54;92225.72;;;21.05;60.16
7660;BME280;3872;47.902;8.162;2023-07-13T09:32:24;92223.09;;;20.26;64.90
7660;BME280;3872;47.902;8.162;2023-07-13T09:34:54;92221.28;;;21.47;59.78
7660;BME280;3872;47.902;8.162;2023-07-13T09:37:21;92219.03;;;22.30;57.70
7660;BME280;3872;47.902;8.162;2023-07-13T09:39:50;92214.81;;;22.29;57.76
7660;BME280;3872;47.902;8.162;2023-07-13T09:42:20;92219.88;;;22.80;53.92
7660;BME280;3872;47.902;8.162;2023-07-13T09:44:52;92212.75;;;22.91;53.76
7660;BME280;3872;47.902;8.162;2023-07-13T09:47:21;92206.31;;;23.25;50.72
7660;BME280;3872;47.902;8.162;2023-07-13T09:49:57;92212.28;;;23.41;51.84
7660;BME280;3872;47.902;8.162;2023-07-13T09:52:25;92214.63;;;24.06;48.62
7660;BME280;3872;47.902;8.162;2023-07-13T09:54:53;92212.41;;;23.78;52.82
7660;BME280;3872;47.902;8.162;2023-07-13T09:57:25;92227.19;;;22.60;50.84
7660;BME280;3872;47.902;8.162;2023-07-13T09:59:53;92224.53;;;21.37;56.14
7660;BME280;3872;47.902;8.162;2023-07-13T10:02:27;92227.28;;;21.60;56.23
7660;BME280;3872;47.902;8.162;2023-07-13T10:04:57;92225.38;;;21.22;61.33
7660;BME280;3872;47.902;8.162;2023-07-13T10:07:26;92229.94;;;21.22;60.42
7660;BME280;3872;47.902;8.162;2023-07-13T10:09:52;92230.25;;;21.55;57.46
7660;BME280;3872;47.902;8.162;2023-07-13T10:12:21;92227.22;;;21.57;55.46
7660;BME280;3872;47.902;8.162;2023-07-13T10:14:51;92222.97;;;21.75;57.05
7660;BME280;3872;47.902;8.162;2023-07-13T10:17:26;92222.13;;;22.09;56.86
7660;BME280;3872;47.902;8.162;2023-07-13T10:19:59;92225.53;;;21.87;56.24
7660;BME280;3872;47.902;8.162;2023-07-13T10:22:37;92222.41;;;23.22;50.65
7660;BME280;3872;47.902;8.162;2023-07-13T10:25:14;92216.16;;;24.07;46.14
7660;BME280;3872;47.902;8.162;2023-07-13T10:27:42;92239.56;;;21.80;53.56
7660;BME280;3872;47.902;8.162;2023-07-13T10:30:13;92231.22;;;20.77;59.63
7660;BME280;3872;47.902;8.162;2023-07-13T10:32:42;92238.91;;;21.48;56.50
7660;BME280;3872;47.902;8.162;2023-07-13T10:35:12;92234.94;;;21.23;56.75
7660;BME280;3872;47.902;8.162;2023-07-13T10:37:45;92234.03;;;21.35;56.42
7660;BME280;3872;47.902;8.162;2023-07-13T10:40:18;92238.88;;;20.79;58.68
7660;BME280;3872;47.902;8.162;2023-07-13T10:42:48;92239.22;;;20.93;58.63
7660;BME280;3872;47.902;8.162;2023-07-13T10:45:18;92250.31;;;20.01;61.06
7660;BME280;3872;47.902;8.162;2023-07-13T10:47:47;92240.88;;;20.82;57.65
7660;BME280;3872;47.902;8.162;2023-07-13T10:50:20;92239.00;;;20.66;57.86
7660;BME280;3872;47.902;8.162;2023-07-13T10:52:48;92240.34;;;20.92;57.94
7660;BME280;3872;47.902;8.162;2023-07-13T10:55:35;92248.38;;;20.60;60.54
7660;BME280;3872;47.902;8.162;2023-07-13T10:58:03;92246.72;;;21.03;58.97
7660;BME280;3872;47.902;8.162;2023-07-13T11:00:44;92240.16;;;21.93;55.02
7660;BME280;3872;47.902;8.162;2023-07-13T11:03:14;92242.75;;;22.28;57.02
7660;BME280;3872;47.902;8.162;2023-07-13T11:05:43;92239.94;;;22.21;54.71
7660;BME280;3872;47.902;8.162;2023-07-13T11:08:16;92245.28;;;21.25;56.98
7660;BME280;3872;47.902;8.162;2023-07-13T11:10:49;92244.91;;;22.42;54.34
7660;BME280;3872;47.902;8.162;2023-07-13T11:13:36;92240.47;;;23.51;48.83
7660;BME280;3872;47.902;8.162;2023-07-13T11:16:12;92241.00;;;22.62;51.00
7660;BME280;3872;47.902;8.162;2023-07-13T11:18:39;92225.22;;;23.32;49.20
7660;BME280;3872;47.902;8.162;2023-07-13T11:21:16;92232.19;;;23.63;51.43
7660;BME280;3872;47.902;8.162;2023-07-13T11:23:44;92243.34;;;22.63;48.45
7660;BME280;3872;47.902;8.162;2023-07-13T11:26:39;92242.16;;;22.15;50.93
7660;BME280;3872;47.902;8.162;2023-07-13T11:29:08;92243.44;;;22.02;52.53
7660;BME280;3872;47.902;8.162;2023-07-13T11:31:36;92242.00;;;21.31;52.71
7660;BME280;3872;47.902;8.162;2023-07-13T11:34:11;92244.63;;;21.66;53.45
7660;BME280;3872;47.902;8.162;2023-07-13T11:36:43;92236.78;;;22.84;49.81
7660;BME280;3872;47.902;8.162;2023-07-13T11:39:17;92227.44;;;24.57;46.98
7660;BME280;3872;47.902;8.162;2023-07-13T11:41:48;92232.38;;;22.26;49.97
7660;BME280;3872;47.902;8.162;2023-07-13T11:44:18;92227.06;;;22.07;49.45
7660;BME280;3872;47.902;8.162;2023-07-13T11:46:46;92218.94;;;23.21;49.21
7660;BME280;3872;47.902;8.162;2023-07-13T11:49:16;92212.13;;;22.75;47.97
7660;BME280;3872;47.902;8.162;2023-07-13T11:51:44;92223.09;;;21.82;48.63
7660;BME280;3872;47.902;8.162;2023-07-13T11:54:22;92216.84;;;22.36;47.90
7660;BME280;3872;47.902;8.162;2023-07-13T11:56:50;92212.16;;;22.55;48.26
7660;BME280;3872;47.902;8.162;2023-07-13T11:59:17;92201.97;;;23.43;43.24
7660;BME280;3872;47.902;8.162;2023-07-13T12:01:48;92212.53;;;22.31;46.68
7660;BME280;3872;47.902;8.162;2023-07-13T12:04:21;92207.03;;;22.92;43.33
7660;BME280;3872;47.902;8.162;2023-07-13T12:06:55;92220.94;;;23.54;41.85
7660;BME280;3872;47.902;8.162;2023-07-13T12:09:26;92213.31;;;23.03;42.35
7660;BME280;3872;47.902;8.162;2023-07-13T12:11:53;92218.25;;;22.52;45.06
7660;BME280;3872;47.902;8.162;2023-07-13T12:14:20;92223.38;;;23.10;42.88
7660;BME280;3872;47.902;8.162;2023-07-13T12:16:50;92213.22;;;23.23;44.21
7660;BME280;3872;47.902;8.162;2023-07-13T12:19:18;92220.78;;;23.43;42.11
7660;BME280;3872;47.902;8.162;2023-07-13T12:21:46;92226.94;;;22.00;44.03
7660;BME280;3872;47.902;8.162;2023-07-13T12:24:19;92229.13;;;23.09;41.84
7660;BME280;3872;47.902;8.162;2023-07-13T12:26:51;92231.44;;;23.66;41.83
7660;BME280;3872;47.902;8.162;2023-07-13T12:29:19;92230.50;;;22.99;44.25
7660;BME280;3872;47.902;8.162;2023-07-13T12:31:46;92225.41;;;24.91;41.24
7660;BME280;3872;47.902;8.162;2023-07-13T12:34:15;92227.13;;;23.92;41.12
7660;BME280;3872;47.902;8.162;2023-07-13T12:36:47;92221.53;;;23.74;40.24
7660;BME280;3872;47.902;8.162;2023-07-13T12:39:19;92224.63;;;26.53;37.09
7660;BME280;3872;47.902;8.162;2023-07-13T12:41:47;92220.91;;;25.64;36.89
7660;BME280;3872;47.902;8.162;2023-07-13T12:44:17;92220.34;;;24.01;40.60
7660;BME280;3872;47.902;8.162;2023-07-13T12:46:52;92215.06;;;24.96;38.22
7660;BME280;3872;47.902;8.162;2023-07-13T12:49:23;92217.31;;;25.49;36.69
7660;BME280;3872;47.902;8.162;2023-07-13T12:51:50;92224.78;;;25.12;35.76
7660;BME280;3872;47.902;8.162;2023-07-13T12:54:23;92217.19;;;27.81;33.10
7660;BME280;3872;47.902;8.162;2023-07-13T12:56:50;92215.81;;;27.06;34.29
7660;BME280;3872;47.902;8.162;2023-07-13T12:59:20;92201.03;;;27.71;32.64
7660;BME280;3872;47.902;8.162;2023-07-13T13:01:48;92201.22;;;28.12;31.98
7660;BME280;3872;47.902;8.162;2023-07-13T13:04:16;92210.28;;;26.24;34.09
7660;BME280;3872;47.902;8.162;2023-07-13T13:06:47;92213.66;;;25.89;32.57
7660;BME280;3872;47.902;8.162;2023-07-13T13:09:15;92206.13;;;26.62;31.76
7660;BME280;3872;47.902;8.162;2023-07-13T13:11:45;92215.56;;;23.54;36.13
7660;BME280;3872;47.902;8.162;2023-07-13T13:14:11;92223.56;;;24.54;34.65
7660;BME280;3872;47.902;8.162;2023-07-13T13:16:45;92206.09;;;24.82;34.60
7660;BME280;3872;47.902;8.162;2023-07-13T13:19:14;92211.97;;;23.76;36.31
7660;BME280;3872;47.902;8.162;2023-07-13T13:21:43;92214.06;;;23.90;36.47
7660;BME280;3872;47.902;8.162;2023-07-13T13:24:14;92205.94;;;24.61;32.88
7660;BME280;3872;47.902;8.162;2023-07-13T13:26:43;92213.81;;;24.87;32.65
7660;BME280;3872;47.902;8.162;2023-07-13T13:29:15;92210.56;;;25.84;32.54
7660;BME280;3872;47.902;8.162;2023-07-13T13:31:42;92200.94;;;25.83;31.75